sensor_id;sensor_type;location;lat;lon;timestamp;P1;durP1;ratioP1;P2;durP2;ratioP2
22184;SDS011;11258;52.516;13.318;2023-02-01T00:01:39;18.10;;;3.93;;
22184;SDS011;11258;52.516;13.318;2023-02-01T00:04:05;17.97;;;4.23;;
22184;SDS011;11258;52.516;13.318;2023-02-01T00:06:30;20.33;;;4.60;;
22184;SDS011;11258;52.516;13.318;2023-02-01T00:08:56;20.23;;;4.53;;
22184;SDS011;11258;52.516;13.318;2023-02-01T00:11:22;18.67;;;3.50;;
22184;SDS011;11258;52.516;13.318;2023-02-01T00:13:49;20.27;;;3.73;;
22184;SDS011;11258;52.516;13.318;2023-02-01T00:16:18;19.13;;;4.30;;
22184;SDS011;11258;52.516;13.318;2023-02-01T00:18:47;17.40;;;3.83;;
22184;SDS011;11258;52.516;13.318;2023-02-01T00:21:16;19.73;;;3.77;;
22184;SDS011;11258;52.516;13.318;2023-02-01T00:23:46;21.90;;;4.17;;
22184;SDS011;11258;52.516;13.318;2023-02-01T00:26:13;17.53;;;3.87;;
22184;SDS011;11258;52.516;13.318;2023-02-01T00:28:44;19.00;;;4.10;;
22184;SDS011;11258;52.516;13.318;2023-02-01T00:31:10;12.33;;;3.43;;
22184;SDS011;11258;52.516;13.318;2023-02-01T00:33:36;14.40;;;4.03;;
22184;SDS011;11258;52.516;13.318;2023-02-01T00:36:05;17.63;;;3.90;;
22184;SDS011;11258;52.516;13.318;2023-02-01T00:38:33;15.70;;;3.57;;
22184;SDS011;11258;52.516;13.318;2023-02-01T00:41:09;15.33;;;3.20;;
22184;SDS011;11258;52.516;13.318;2023-02-01T00:43:36;16.77;;;3.60;;
22184;SDS011;11258;52.516;13.318;2023-02-01T00:46:02;14.20;;;2.93;;
22184;SDS011;11258;52.516;13.318;2023-02-01T00:48:28;16.43;;;3.77;;
22184;SDS011;11258;52.516;13.318;2023-02-01T00:50:53;11.60;;;3.13;;
22184;SDS011;11258;52.516;13.318;2023-02-01T00:53:19;17.03;;;3.57;;
22184;SDS011;11258;52.516;13.318;2023-02-01T00:55:45;10.83;;;2.67;;
22184;SDS011;11258;52.516;13.318;2023-02-01T00:58:11;14.17;;;3.07;;
22184;SDS011;11258;52.516;13.318;2023-02-01T01:00:37;14.00;;;2.60;;
22184;SDS011;11258;52.516;13.318;2023-02-01T01:03:03;20.80;;;3.93;;
22184;SDS011;11258;52.516;13.318;2023-02-01T01:05:42;12.73;;;2.87;;
22184;SDS011;11258;52.516;13.318;2023-02-01T01:08:12;15.03;;;2.90;;
22184;SDS011;11258;52.516;13.318;2023-02-01T01:10:38;11.70;;;2.77;;
22184;SDS011;11258;52.516;13.318;2023-02-01T01:13:04;13.33;;;3.30;;
22184;SDS011;11258;52.516;13.318;2023-02-01T01:15:30;17.30;;;3.47;;
22184;SDS011;11258;52.516;13.318;2023-02-01T01:17:56;19.43;;;3.23;;
22184;SDS011;11258;52.516;13.318;2023-02-01T01:20:21;11.00;;;2.70;;
22184;SDS011;11258;52.516;13.318;2023-02-01T01:22:47;16.47;;;2.77;;
22184;SDS011;11258;52.516;13.318;2023-02-01T01:25:13;16.23;;;3.33;;
22184;SDS011;11258;52.516;13.318;2023-02-01T01:27:39;13.70;;;3.17;;
22184;SDS011;11258;52.516;13.318;2023-02-01T01:30:05;17.80;;;3.37;;
22184;SDS011;11258;52.516;13.318;2023-02-01T01:32:32;15.50;;;3.13;;
22184;SDS011;11258;52.516;13.318;2023-02-01T01:34:58;20.40;;;3.33;;
22184;SDS011;11258;52.516;13.318;2023-02-01T01:37:23;14.20;;;3.53;;
22184;SDS011;11258;52.516;13.318;2023-02-01T01:39:49;13.80;;;3.30;;
22184;SDS011;11258;52.516;13.318;2023-02-01T01:42:14;20.17;;;3.80;;
22184;SDS011;11258;52.516;13.318;2023-02-01T01:47:30;18.53;;;4.13;;
22184;SDS011;11258;52.516;13.318;2023-02-01T01:50:08;18.10;;;3.60;;
22184;SDS011;11258;52.516;13.318;2023-02-01T01:52:38;12.52;;;3.58;;
22184;SDS011;11258;52.516;13.318;2023-02-01T01:55:06;10.47;;;2.97;;
22184;SDS011;11258;52.516;13.318;2023-02-01T01:57:33;17.17;;;3.53;;
22184;SDS011;11258;52.516;13.318;2023-02-01T02:00:10;13.37;;;2.67;;
22184;SDS011;11258;52.516;13.318;2023-02-01T02:02:38;15.23;;;2.90;;
22184;SDS011;11258;52.516;13.318;2023-02-01T02:05:06;13.27;;;2.60;;
22184;SDS011;11258;52.516;13.318;2023-02-01T02:07:34;16.40;;;3.50;;
22184;SDS011;11258;52.516;13.318;2023-02-01T02:10:04;19.13;;;4.30;;
22184;SDS011;11258;52.516;13.318;2023-02-01T02:12:31;20.73;;;3.80;;
22184;SDS011;11258;52.516;13.318;2023-02-01T02:14:57;11.73;;;2.83;;
22184;SDS011;11258;52.516;13.318;2023-02-01T02:21:06;17.07;;;3.87;;
22184;SDS011;11258;52.516;13.318;2023-02-01T02:23:15;19.97;;;3.13;;
22184;SDS011;11258;52.516;13.318;2023-02-01T02:26:34;17.60;;;3.13;;
22184;SDS011;11258;52.516;13.318;2023-02-01T02:39:45;18.57;;;3.37;;
22184;SDS011;11258;52.516;13.318;2023-02-01T02:45:35;15.23;;;3.10;;
22184;SDS011;11258;52.516;13.318;2023-02-01T02:53:58;18.00;;;3.83;;
22184;SDS011;11258;52.516;13.318;2023-02-01T02:56:46;21.40;;;4.87;;
22184;SDS011;11258;52.516;13.318;2023-02-01T02:59:32;20.93;;;3.57;;
22184;SDS011;11258;52.516;13.318;2023-02-01T03:02:17;15.73;;;3.60;;
22184;SDS011;11258;52.516;13.318;2023-02-01T03:05:02;14.07;;;3.63;;
22184;SDS011;11258;52.516;13.318;2023-02-01T03:13:00;14.23;;;3.50;;
22184;SDS011;11258;52.516;13.318;2023-02-01T03:15:37;15.53;;;3.20;;
22184;SDS011;11258;52.516;13.318;2023-02-01T03:18:13;15.70;;;3.67;;
22184;SDS011;11258;52.516;13.318;2023-02-01T03:20:44;12.63;;;3.67;;
22184;SDS011;11258;52.516;13.318;2023-02-01T03:23:13;15.33;;;4.60;;
22184;SDS011;11258;52.516;13.318;2023-02-01T03:25:42;11.93;;;3.03;;
22184;SDS011;11258;52.516;13.318;2023-02-01T03:28:08;19.20;;;3.70;;
22184;SDS011;11258;52.516;13.318;2023-02-01T03:30:37;18.43;;;3.63;;
22184;SDS011;11258;52.516;13.318;2023-02-01T03:33:08;25.47;;;4.57;;
22184;SDS011;11258;52.516;13.318;2023-02-01T03:35:48;21.37;;;4.50;;
22184;SDS011;11258;52.516;13.318;2023-02-01T03:38:20;20.47;;;3.83;;
22184;SDS011;11258;52.516;13.318;2023-02-01T03:41:13;18.30;;;3.57;;
22184;SDS011;11258;52.516;13.318;2023-02-01T03:46:20;17.07;;;3.63;;
22184;SDS011;11258;52.516;13.318;2023-02-01T03:48:50;25.57;;;5.20;;
22184;SDS011;11258;52.516;13.318;2023-02-01T03:51:17;11.57;;;3.10;;
22184;SDS011;11258;52.516;13.318;2023-02-01T03:53:45;24.27;;;4.30;;
22184;SDS011;11258;52.516;13.318;2023-02-01T03:56:14;18.40;;;3.70;;
22184;SDS011;11258;52.516;13.318;2023-02-01T03:58:43;14.97;;;3.20;;
22184;SDS011;11258;52.516;13.318;2023-02-01T04:01:23;16.63;;;4.00;;
22184;SDS011;11258;52.516;13.318;2023-02-01T04:03:48;20.47;;;3.70;;
22184;SDS011;11258;52.516;13.318;2023-02-01T04:06:16;19.60;;;4.57;;
22184;SDS011;11258;52.516;13.318;2023-02-01T04:08:42;17.97;;;3.90;;
22184;SDS011;11258;52.516;13.318;2023-02-01T04:11:07;18.67;;;3.77;;
22184;SDS011;11258;52.516;13.318;2023-02-01T04:13:33;20.47;;;3.60;;
22184;SDS011;11258;52.516;13.318;2023-02-01T04:15:58;17.80;;;3.37;;
22184;SDS011;11258;52.516;13.318;2023-02-01T04:18:24;20.43;;;4.03;;
22184;SDS011;11258;52.516;13.318;2023-02-01T04:20:50;14.03;;;3.90;;
22184;SDS011;11258;52.516;13.318;2023-02-01T04:23:15;11.30;;;3.70;;
22184;SDS011;11258;52.516;13.318;2023-02-01T04:25:41;13.23;;;3.13;;
22184;SDS011;11258;52.516;13.318;2023-02-01T04:28:06;15.30;;;3.33;;
22184;SDS011;11258;52.516;13.318;2023-02-01T04:30:32;19.70;;;4.17;;
22184;SDS011;11258;52.516;13.318;2023-02-01T04:32:58;15.53;;;3.20;;
22184;SDS011;11258;52.516;13.318;2023-02-01T04:35:23;17.07;;;3.53;;
22184;SDS011;11258;52.516;13.318;2023-02-01T04:37:49;19.20;;;4.60;;
22184;SDS011;11258;52.516;13.318;2023-02-01T04:40:14;18.20;;;3.77;;
22184;SDS011;11258;52.516;13.318;2023-02-01T04:42:40;26.57;;;3.67;;
22184;SDS011;11258;52.516;13.318;2023-02-01T04:45:06;18.90;;;3.27;;
22184;SDS011;11258;52.516;13.318;2023-02-01T04:47:32;22.13;;;3.90;;
22184;SDS011;11258;52.516;13.318;2023-02-01T04:49:57;21.63;;;4.03;;
22184;SDS011;11258;52.516;13.318;2023-02-01T04:52:23;16.90;;;3.93;;
22184;SDS011;11258;52.516;13.318;2023-02-01T04:54:49;18.27;;;3.40;;
22184;SDS011;11258;52.516;13.318;2023-02-01T04:57:14;23.60;;;4.50;;
22184;SDS011;11258;52.516;13.318;2023-02-01T04:59:40;16.30;;;3.77;;
22184;SDS011;11258;52.516;13.318;2023-02-01T05:02:06;14.80;;;3.70;;
22184;SDS011;11258;52.516;13.318;2023-02-01T05:04:31;17.67;;;4.27;;
22184;SDS011;11258;52.516;13.318;2023-02-01T05:06:57;19.13;;;4.53;;
22184;SDS011;11258;52.516;13.318;2023-02-01T05:09:22;14.53;;;3.17;;
22184;SDS011;11258;52.516;13.318;2023-02-01T05:11:48;13.53;;;3.53;;
22184;SDS011;11258;52.516;13.318;2023-02-01T05:14:32;19.83;;;3.87;;
22184;SDS011;11258;52.516;13.318;2023-02-01T05:16:58;14.50;;;3.37;;
22184;SDS011;11258;52.516;13.318;2023-02-01T05:19:23;24.80;;;4.27;;
22184;SDS011;11258;52.516;13.318;2023-02-01T05:21:49;24.83;;;4.33;;
22184;SDS011;11258;52.516;13.318;2023-02-01T05:24:15;22.00;;;4.20;;
22184;SDS011;11258;52.516;13.318;2023-02-01T05:26:47;14.80;;;3.53;;
22184;SDS011;11258;52.516;13.318;2023-02-01T05:29:13;17.90;;;3.87;;
22184;SDS011;11258;52.516;13.318;2023-02-01T05:31:39;20.43;;;3.87;;
22184;SDS011;11258;52.516;13.318;2023-02-01T05:34:05;16.97;;;4.07;;
22184;SDS011;11258;52.516;13.318;2023-02-01T05:36:31;12.03;;;3.40;;
22184;SDS011;11258;52.516;13.318;2023-02-01T05:38:57;19.53;;;3.70;;
22184;SDS011;11258;52.516;13.318;2023-02-01T05:41:23;17.67;;;3.80;;
22184;SDS011;11258;52.516;13.318;2023-02-01T05:43:48;18.00;;;4.07;;
22184;SDS011;11258;52.516;13.318;2023-02-01T05:46:14;18.20;;;3.87;;
22184;SDS011;11258;52.516;13.318;2023-02-01T05:48:40;18.47;;;3.90;;
22184;SDS011;11258;52.516;13.318;2023-02-01T05:51:05;17.90;;;4.33;;
22184;SDS011;11258;52.516;13.318;2023-02-01T05:53:32;15.33;;;3.80;;
22184;SDS011;11258;52.516;13.318;2023-02-01T05:55:57;16.97;;;4.47;;
22184;SDS011;11258;52.516;13.318;2023-02-01T05:58:23;15.43;;;3.43;;
22184;SDS011;11258;52.516;13.318;2023-02-01T06:00:48;20.97;;;4.13;;
22184;SDS011;11258;52.516;13.318;2023-02-01T06:03:14;17.93;;;3.97;;
22184;SDS011;11258;52.516;13.318;2023-02-01T06:05:40;20.87;;;4.87;;
22184;SDS011;11258;52.516;13.318;2023-02-01T06:08:08;20.90;;;3.73;;
22184;SDS011;11258;52.516;13.318;2023-02-01T06:10:33;22.00;;;3.67;;
22184;SDS011;11258;52.516;13.318;2023-02-01T06:12:59;19.43;;;4.20;;
22184;SDS011;11258;52.516;13.318;2023-02-01T06:15:25;17.80;;;4.37;;
22184;SDS011;11258;52.516;13.318;2023-02-01T06:17:50;16.07;;;3.40;;
22184;SDS011;11258;52.516;13.318;2023-02-01T06:20:16;14.97;;;3.37;;
22184;SDS011;11258;52.516;13.318;2023-02-01T06:22:42;20.57;;;4.00;;
22184;SDS011;11258;52.516;13.318;2023-02-01T06:25:08;25.40;;;5.17;;
22184;SDS011;11258;52.516;13.318;2023-02-01T06:27:35;22.33;;;4.60;;
22184;SDS011;11258;52.516;13.318;2023-02-01T06:30:01;14.33;;;3.30;;
22184;SDS011;11258;52.516;13.318;2023-02-01T06:32:27;15.73;;;4.00;;
22184;SDS011;11258;52.516;13.318;2023-02-01T06:34:52;16.97;;;3.87;;
22184;SDS011;11258;52.516;13.318;2023-02-01T06:37:19;15.53;;;3.33;;
22184;SDS011;11258;52.516;13.318;2023-02-01T06:39:44;18.87;;;4.07;;
22184;SDS011;11258;52.516;13.318;2023-02-01T06:42:10;18.47;;;4.80;;
22184;SDS011;11258;52.516;13.318;2023-02-01T06:44:36;17.00;;;3.83;;
22184;SDS011;11258;52.516;13.318;2023-02-01T06:47:02;17.50;;;4.07;;
22184;SDS011;11258;52.516;13.318;2023-02-01T06:49:28;14.30;;;4.07;;
22184;SDS011;11258;52.516;13.318;2023-02-01T06:51:54;19.40;;;4.00;;
22184;SDS011;11258;52.516;13.318;2023-02-01T06:54:20;18.00;;;3.60;;
22184;SDS011;11258;52.516;13.318;2023-02-01T06:56:45;18.93;;;3.37;;
22184;SDS011;11258;52.516;13.318;2023-02-01T06:59:11;14.77;;;3.70;;
22184;SDS011;11258;52.516;13.318;2023-02-01T07:01:37;14.57;;;3.90;;
22184;SDS011;11258;52.516;13.318;2023-02-01T07:04:02;17.80;;;4.03;;
22184;SDS011;11258;52.516;13.318;2023-02-01T07:06:28;18.37;;;4.27;;
22184;SDS011;11258;52.516;13.318;2023-02-01T07:08:54;15.83;;;3.67;;
22184;SDS011;11258;52.516;13.318;2023-02-01T07:11:21;15.37;;;3.90;;
22184;SDS011;11258;52.516;13.318;2023-02-01T07:13:46;14.93;;;3.37;;
22184;SDS011;11258;52.516;13.318;2023-02-01T07:16:14;14.53;;;3.80;;
22184;SDS011;11258;52.516;13.318;2023-02-01T07:18:41;11.90;;;4.07;;
22184;SDS011;11258;52.516;13.318;2023-02-01T07:21:07;13.77;;;3.17;;
22184;SDS011;11258;52.516;13.318;2023-02-01T07:23:33;18.60;;;3.70;;
22184;SDS011;11258;52.516;13.318;2023-02-01T07:26:00;13.90;;;3.20;;
22184;SDS011;11258;52.516;13.318;2023-02-01T07:28:28;15.07;;;3.50;;
22184;SDS011;11258;52.516;13.318;2023-02-01T07:31:01;20.60;;;3.90;;
22184;SDS011;11258;52.516;13.318;2023-02-01T07:33:32;15.33;;;3.90;;
22184;SDS011;11258;52.516;13.318;2023-02-01T07:35:57;13.43;;;3.23;;
22184;SDS011;11258;52.516;13.318;2023-02-01T07:38:27;21.57;;;3.80;;
22184;SDS011;11258;52.516;13.318;2023-02-01T07:41:03;15.40;;;3.57;;
22184;SDS011;11258;52.516;13.318;2023-02-01T07:43:30;19.30;;;4.27;;
22184;SDS011;11258;52.516;13.318;2023-02-01T07:45:56;19.67;;;5.07;;
22184;SDS011;11258;52.516;13.318;2023-02-01T07:48:22;16.27;;;3.30;;
22184;SDS011;11258;52.516;13.318;2023-02-01T07:50:56;12.20;;;3.77;;
22184;SDS011;11258;52.516;13.318;2023-02-01T07:53:26;17.70;;;3.67;;
22184;SDS011;11258;52.516;13.318;2023-02-01T07:55:53;15.43;;;3.70;;
22184;SDS011;11258;52.516;13.318;2023-02-01T07:58:20;12.83;;;3.50;;
22184;SDS011;11258;52.516;13.318;2023-02-01T08:00:46;13.93;;;4.07;;
22184;SDS011;11258;52.516;13.318;2023-02-01T08:03:30;17.33;;;4.17;;
22184;SDS011;11258;52.516;13.318;2023-02-01T08:05:56;13.27;;;3.80;;
22184;SDS011;11258;52.516;13.318;2023-02-01T08:08:22;15.17;;;3.67;;
22184;SDS011;11258;52.516;13.318;2023-02-01T08:10:48;16.10;;;4.00;;
22184;SDS011;11258;52.516;13.318;2023-02-01T08:13:14;12.70;;;3.63;;
22184;SDS011;11258;52.516;13.318;2023-02-01T08:15:40;17.77;;;3.97;;
22184;SDS011;11258;52.516;13.318;2023-02-01T08:18:06;15.90;;;3.57;;
22184;SDS011;11258;52.516;13.318;2023-02-01T08:20:31;16.47;;;3.67;;
22184;SDS011;11258;52.516;13.318;2023-02-01T08:23:00;17.50;;;4.43;;
22184;SDS011;11258;52.516;13.318;2023-02-01T08:25:25;11.77;;;4.00;;
22184;SDS011;11258;52.516;13.318;2023-02-01T08:27:52;14.27;;;3.47;;
22184;SDS011;11258;52.516;13.318;2023-02-01T08:30:19;7.87;;;3.20;;
22184;SDS011;11258;52.516;13.318;2023-02-01T08:32:46;8.53;;;3.10;;
22184;SDS011;11258;52.516;13.318;2023-02-01T08:35:12;12.67;;;3.10;;
22184;SDS011;11258;52.516;13.318;2023-02-01T08:37:38;15.13;;;3.47;;
22184;SDS011;11258;52.516;13.318;2023-02-01T08:40:04;9.20;;;3.17;;
22184;SDS011;11258;52.516;13.318;2023-02-01T08:42:30;12.03;;;3.60;;
22184;SDS011;11258;52.516;13.318;2023-02-01T08:45:15;9.07;;;3.10;;
22184;SDS011;11258;52.516;13.318;2023-02-01T08:47:40;11.50;;;3.67;;
22184;SDS011;11258;52.516;13.318;2023-02-01T08:50:06;11.50;;;4.10;;
22184;SDS011;11258;52.516;13.318;2023-02-01T08:52:32;10.23;;;3.03;;
22184;SDS011;11258;52.516;13.318;2023-02-01T08:54:58;11.77;;;3.93;;
22184;SDS011;11258;52.516;13.318;2023-02-01T08:57:23;6.60;;;2.53;;
22184;SDS011;11258;52.516;13.318;2023-02-01T08:59:49;8.80;;;2.70;;
22184;SDS011;11258;52.516;13.318;2023-02-01T09:02:15;5.83;;;2.40;;
22184;SDS011;11258;52.516;13.318;2023-02-01T09:04:42;8.23;;;2.13;;
22184;SDS011;11258;52.516;13.318;2023-02-01T09:07:08;5.23;;;2.20;;
22184;SDS011;11258;52.516;13.318;2023-02-01T09:09:34;6.43;;;2.80;;
22184;SDS011;11258;52.516;13.318;2023-02-01T09:12:01;6.13;;;2.57;;
22184;SDS011;11258;52.516;13.318;2023-02-01T09:14:27;4.50;;;2.17;;
22184;SDS011;11258;52.516;13.318;2023-02-01T09:16:53;5.03;;;2.13;;
22184;SDS011;11258;52.516;13.318;2023-02-01T09:19:18;4.77;;;1.50;;
22184;SDS011;11258;52.516;13.318;2023-02-01T09:21:44;4.10;;;2.30;;
22184;SDS011;11258;52.516;13.318;2023-02-01T09:24:10;6.23;;;2.27;;
22184;SDS011;11258;52.516;13.318;2023-02-01T09:26:36;4.90;;;1.50;;
22184;SDS011;11258;52.516;13.318;2023-02-01T09:29:03;4.93;;;1.70;;
22184;SDS011;11258;52.516;13.318;2023-02-01T09:31:31;6.80;;;1.67;;
22184;SDS011;11258;52.516;13.318;2023-02-01T09:33:57;5.80;;;1.43;;
22184;SDS011;11258;52.516;13.318;2023-02-01T09:36:22;4.57;;;1.80;;
22184;SDS011;11258;52.516;13.318;2023-02-01T09:38:49;3.83;;;1.30;;
22184;SDS011;11258;52.516;13.318;2023-02-01T09:47:03;5.03;;;1.80;;
22184;SDS011;11258;52.516;13.318;2023-02-01T09:49:36;4.23;;;1.40;;
22184;SDS011;11258;52.516;13.318;2023-02-01T09:52:07;3.23;;;1.90;;
22184;SDS011;11258;52.516;13.318;2023-02-01T09:57:28;4.53;;;1.30;;
22184;SDS011;11258;52.516;13.318;2023-02-01T10:00:17;2.90;;;1.30;;
22184;SDS011;11258;52.516;13.318;2023-02-01T10:02:48;3.73;;;1.10;;
22184;SDS011;11258;52.516;13.318;2023-02-01T10:05:16;4.90;;;1.53;;
22184;SDS011;11258;52.516;13.318;2023-02-01T10:07:59;4.87;;;1.30;;
22184;SDS011;11258;52.516;13.318;2023-02-01T10:10:33;8.13;;;1.53;;
22184;SDS011;11258;52.516;13.318;2023-02-01T10:21:32;7.77;;;1.80;;
22184;SDS011;11258;52.516;13.318;2023-02-01T10:26:51;4.77;;;1.77;;
22184;SDS011;11258;52.516;13.318;2023-02-01T10:29:27;3.00;;;1.30;;
22184;SDS011;11258;52.516;13.318;2023-02-01T10:31:58;14.27;;;2.60;;
22184;SDS011;11258;52.516;13.318;2023-02-01T10:34:28;6.90;;;2.07;;
22184;SDS011;11258;52.516;13.318;2023-02-01T10:37:01;5.40;;;1.30;;
22184;SDS011;11258;52.516;13.318;2023-02-01T10:39:49;7.93;;;1.50;;
22184;SDS011;11258;52.516;13.318;2023-02-01T10:42:19;9.17;;;2.00;;
22184;SDS011;11258;52.516;13.318;2023-02-01T10:44:48;6.33;;;2.13;;
22184;SDS011;11258;52.516;13.318;2023-02-01T10:47:15;6.47;;;1.57;;
22184;SDS011;11258;52.516;13.318;2023-02-01T10:54:56;3.57;;;1.70;;
22184;SDS011;11258;52.516;13.318;2023-02-01T10:57:41;7.93;;;1.80;;
22184;SDS011;11258;52.516;13.318;2023-02-01T11:00:19;6.37;;;1.60;;
22184;SDS011;11258;52.516;13.318;2023-02-01T11:02:46;4.93;;;1.80;;
22184;SDS011;11258;52.516;13.318;2023-02-01T11:05:15;6.07;;;1.60;;
22184;SDS011;11258;52.516;13.318;2023-02-01T11:07:49;4.63;;;1.10;;
22184;SDS011;11258;52.516;13.318;2023-02-01T11:13:03;4.87;;;1.57;;
22184;SDS011;11258;52.516;13.318;2023-02-01T11:15:30;11.07;;;2.43;;
22184;SDS011;11258;52.516;13.318;2023-02-01T11:17:55;8.27;;;2.00;;
22184;SDS011;11258;52.516;13.318;2023-02-01T11:22:58;11.73;;;3.20;;
22184;SDS011;11258;52.516;13.318;2023-02-01T11:25:24;13.83;;;1.87;;
22184;SDS011;11258;52.516;13.318;2023-02-01T11:27:51;6.90;;;2.20;;
22184;SDS011;11258;52.516;13.318;2023-02-01T11:30:22;6.20;;;1.80;;
22184;SDS011;11258;52.516;13.318;2023-02-01T11:32:59;9.83;;;2.23;;
22184;SDS011;11258;52.516;13.318;2023-02-01T11:35:28;7.13;;;1.70;;
22184;SDS011;11258;52.516;13.318;2023-02-01T11:37:55;11.93;;;2.83;;
22184;SDS011;11258;52.516;13.318;2023-02-01T11:43:13;7.20;;;2.83;;
22184;SDS011;11258;52.516;13.318;2023-02-01T11:45:39;7.23;;;2.27;;
22184;SDS011;11258;52.516;13.318;2023-02-01T11:48:09;6.50;;;1.80;;
22184;SDS011;11258;52.516;13.318;2023-02-01T11:50:56;11.90;;;3.07;;
22184;SDS011;11258;52.516;13.318;2023-02-01T12:09:29;8.47;;;2.43;;
22184;SDS011;11258;52.516;13.318;2023-02-01T12:37:51;14.73;;;2.40;;
22184;SDS011;11258;52.516;13.318;2023-02-01T12:43:09;12.10;;;2.20;;
22184;SDS011;11258;52.516;13.318;2023-02-01T12:45:48;13.57;;;2.77;;
22184;SDS011;11258;52.516;13.318;2023-02-01T12:54:02;8.83;;;2.73;;
22184;SDS011;11258;52.516;13.318;2023-02-01T12:59:13;8.03;;;1.73;;
22184;SDS011;11258;52.516;13.318;2023-02-01T13:02:31;12.37;;;2.43;;
22184;SDS011;11258;52.516;13.318;2023-02-01T13:04:59;7.67;;;2.10;;
22184;SDS011;11258;52.516;13.318;2023-02-01T13:07:51;9.67;;;2.30;;
22184;SDS011;11258;52.516;13.318;2023-02-01T13:10:23;6.63;;;2.07;;
22184;SDS011;11258;52.516;13.318;2023-02-01T13:13:03;9.80;;;2.07;;
22184;SDS011;11258;52.516;13.318;2023-02-01T13:15:40;10.50;;;2.30;;
22184;SDS011;11258;52.516;13.318;2023-02-01T13:18:20;8.07;;;2.80;;
22184;SDS011;11258;52.516;13.318;2023-02-01T13:20:49;11.93;;;2.30;;
22184;SDS011;11258;52.516;13.318;2023-02-01T13:23:25;7.17;;;2.37;;
22184;SDS011;11258;52.516;13.318;2023-02-01T13:25:54;12.47;;;2.57;;
22184;SDS011;11258;52.516;13.318;2023-02-01T13:28:24;8.13;;;2.83;;
22184;SDS011;11258;52.516;13.318;2023-02-01T13:45:32;9.90;;;2.17;;
22184;SDS011;11258;52.516;13.318;2023-02-01T13:48:04;9.87;;;2.80;;
22184;SDS011;11258;52.516;13.318;2023-02-01T13:50:35;11.43;;;2.37;;
22184;SDS011;11258;52.516;13.318;2023-02-01T13:53:11;8.70;;;2.13;;
22184;SDS011;11258;52.516;13.318;2023-02-01T13:55:41;10.20;;;2.53;;
22184;SDS011;11258;52.516;13.318;2023-02-01T14:00:41;13.07;;;2.87;;
22184;SDS011;11258;52.516;13.318;2023-02-01T14:13:27;10.30;;;2.87;;
22184;SDS011;11258;52.516;13.318;2023-02-01T14:23:44;12.10;;;2.37;;
22184;SDS011;11258;52.516;13.318;2023-02-01T14:26:15;13.60;;;2.63;;
22184;SDS011;11258;52.516;13.318;2023-02-01T14:28:49;13.53;;;3.37;;
22184;SDS011;11258;52.516;13.318;2023-02-01T14:34:11;19.43;;;8.63;;
22184;SDS011;11258;52.516;13.318;2023-02-01T14:36:45;11.37;;;3.80;;
22184;SDS011;11258;52.516;13.318;2023-02-01T14:39:22;12.10;;;3.70;;
22184;SDS011;11258;52.516;13.318;2023-02-01T14:41:55;15.77;;;3.60;;
22184;SDS011;11258;52.516;13.318;2023-02-01T14:44:30;10.83;;;2.90;;
22184;SDS011;11258;52.516;13.318;2023-02-01T14:47:10;10.83;;;2.90;;
22184;SDS011;11258;52.516;13.318;2023-02-01T14:49:56;8.07;;;2.63;;
22184;SDS011;11258;52.516;13.318;2023-02-01T14:52:32;9.93;;;2.97;;
22184;SDS011;11258;52.516;13.318;2023-02-01T14:55:11;12.40;;;3.20;;
22184;SDS011;11258;52.516;13.318;2023-02-01T14:57:52;11.10;;;3.20;;
22184;SDS011;11258;52.516;13.318;2023-02-01T15:00:24;5.80;;;2.03;;
22184;SDS011;11258;52.516;13.318;2023-02-01T15:02:52;14.13;;;2.63;;
22184;SDS011;11258;52.516;13.318;2023-02-01T15:05:27;10.07;;;2.70;;
22184;SDS011;11258;52.516;13.318;2023-02-01T15:07:58;7.47;;;2.23;;
22184;SDS011;11258;52.516;13.318;2023-02-01T15:10:30;8.80;;;2.37;;
22184;SDS011;11258;52.516;13.318;2023-02-01T15:12:58;8.57;;;2.37;;
22184;SDS011;11258;52.516;13.318;2023-02-01T15:15:24;3.47;;;1.47;;
22184;SDS011;11258;52.516;13.318;2023-02-01T15:17:51;6.93;;;1.93;;
22184;SDS011;11258;52.516;13.318;2023-02-01T15:20:27;5.97;;;2.03;;
22184;SDS011;11258;52.516;13.318;2023-02-01T15:23:01;7.13;;;1.50;;
22184;SDS011;11258;52.516;13.318;2023-02-01T15:25:30;5.30;;;1.87;;
22184;SDS011;11258;52.516;13.318;2023-02-01T15:28:01;4.90;;;1.70;;
22184;SDS011;11258;52.516;13.318;2023-02-01T15:30:29;5.63;;;1.63;;
22184;SDS011;11258;52.516;13.318;2023-02-01T15:41:31;3.73;;;1.10;;
22184;SDS011;11258;52.516;13.318;2023-02-01T15:46:21;5.60;;;0.93;;
22184;SDS011;11258;52.516;13.318;2023-02-01T15:48:50;2.10;;;1.10;;
22184;SDS011;11258;52.516;13.318;2023-02-01T15:51:18;2.43;;;0.80;;
22184;SDS011;11258;52.516;13.318;2023-02-01T15:53:47;3.60;;;1.60;;
22184;SDS011;11258;52.516;13.318;2023-02-01T15:56:25;3.43;;;1.20;;
22184;SDS011;11258;52.516;13.318;2023-02-01T15:58:55;3.43;;;1.07;;
22184;SDS011;11258;52.516;13.318;2023-02-01T16:01:24;1.70;;;1.13;;
22184;SDS011;11258;52.516;13.318;2023-02-01T16:04:00;1.00;;;0.90;;
22184;SDS011;11258;52.516;13.318;2023-02-01T16:06:45;1.40;;;0.63;;
22184;SDS011;11258;52.516;13.318;2023-02-01T16:09:13;1.77;;;0.97;;
22184;SDS011;11258;52.516;13.318;2023-02-01T16:11:55;1.77;;;1.00;;
22184;SDS011;11258;52.516;13.318;2023-02-01T16:14:25;1.73;;;0.83;;
22184;SDS011;11258;52.516;13.318;2023-02-01T16:16:52;0.97;;;0.80;;
22184;SDS011;11258;52.516;13.318;2023-02-01T16:19:20;0.93;;;0.60;;
22184;SDS011;11258;52.516;13.318;2023-02-01T16:21:48;3.40;;;1.20;;
22184;SDS011;11258;52.516;13.318;2023-02-01T16:24:13;2.23;;;0.70;;
22184;SDS011;11258;52.516;13.318;2023-02-01T16:26:39;1.00;;;0.50;;
22184;SDS011;11258;52.516;13.318;2023-02-01T16:29:05;4.13;;;0.60;;
22184;SDS011;11258;52.516;13.318;2023-02-01T16:31:34;1.13;;;0.63;;
22184;SDS011;11258;52.516;13.318;2023-02-01T16:34:03;1.00;;;0.60;;
22184;SDS011;11258;52.516;13.318;2023-02-01T16:36:30;2.43;;;0.90;;
22184;SDS011;11258;52.516;13.318;2023-02-01T16:38:56;1.20;;;0.87;;
22184;SDS011;11258;52.516;13.318;2023-02-01T16:41:22;0.93;;;0.50;;
22184;SDS011;11258;52.516;13.318;2023-02-01T16:43:49;1.23;;;0.70;;
22184;SDS011;11258;52.516;13.318;2023-02-01T16:46:18;0.60;;;0.53;;
22184;SDS011;11258;52.516;13.318;2023-02-01T16:48:50;2.47;;;0.80;;
22184;SDS011;11258;52.516;13.318;2023-02-01T16:51:21;2.60;;;0.70;;
22184;SDS011;11258;52.516;13.318;2023-02-01T16:53:48;2.77;;;0.70;;
22184;SDS011;11258;52.516;13.318;2023-02-01T16:56:24;1.80;;;0.90;;
22184;SDS011;11258;52.516;13.318;2023-02-01T16:58:54;1.93;;;0.67;;
22184;SDS011;11258;52.516;13.318;2023-02-01T17:01:20;2.60;;;0.90;;
22184;SDS011;11258;52.516;13.318;2023-02-01T17:03:46;6.40;;;1.00;;
22184;SDS011;11258;52.516;13.318;2023-02-01T17:06:19;1.00;;;0.60;;
22184;SDS011;11258;52.516;13.318;2023-02-01T17:08:53;0.87;;;0.60;;
22184;SDS011;11258;52.516;13.318;2023-02-01T17:11:22;1.00;;;0.57;;
22184;SDS011;11258;52.516;13.318;2023-02-01T17:13:48;3.20;;;1.00;;
22184;SDS011;11258;52.516;13.318;2023-02-01T17:16:35;2.13;;;1.00;;
22184;SDS011;11258;52.516;13.318;2023-02-01T17:19:06;2.60;;;1.00;;
22184;SDS011;11258;52.516;13.318;2023-02-01T17:21:48;1.50;;;1.07;;
22184;SDS011;11258;52.516;13.318;2023-02-01T17:24:21;1.83;;;1.10;;
22184;SDS011;11258;52.516;13.318;2023-02-01T17:26:49;5.73;;;1.20;;
22184;SDS011;11258;52.516;13.318;2023-02-01T17:29:16;6.47;;;1.40;;